Sulphur, Louisiana
Current Conditions -  °F | °C
As of 6:35 AM on Monday 20 Oct 2014 (Local Time) from KUXL Reporting Station
Clear Clear  
Wind Chill: 59°   Ceiling: Unl
Heat Index: 59°   Visibility: 10mi
Dew Point: 55°   Wind: 5mph
Humidity: 84%   Direction: 40°NE
Pressure: 30.04"   Gusts: NA
Location:  30.24°N, 93.38°W
Report Text: KUXL 201135Z AUTO 04004KT 10SM CLR 15/13 A3004 RMK AO2 T01510125
Loading
Personal Weather Stations






























Interactive Weather Map
Tropical Storm Tracking
New forecast layout! Learn more

10-Day Weather Forecast

Advertisements
Track Severe Weather on mobile